Terminal Aerodrome Forecast
Issued by NWS Louisville, KY

Current Version | Previous Version | Text Only | Print | Product List | Glossary On
Versions: 1 2 3 4 5 6 7 8 9 10 11 12 13 14 15 16 17 18
000
FTUS43 KLMK 281100
TAFBWG
TAF
KBWG 281120Z 2812/2912 00000KT 5SM BR SKC
      TEMPO 2812/2813 3SM BR
     FM281400 09004KT P6SM SCT040
     FM290800 VRB03KT 5SM BR SCT250=

USA.gov is the U.S. government's official web portal to all federal, state and local government web resources and services.